Time;durP1;ratioP1;P1;durP2;ratioP2;P2;SDS_P1;SDS_P2;PMS_P1;PMS_P2;Temp;Humidity;BMP_temperature;BMP_pressure;BME280_temperature;BME280_humidity;BME280_pressure;Samples;Min_cycle;Max_cycle;Signal;HPM_P1;HPM_P2
2021/03/01 00:00:43;;;;;;;15.52;7.20;;;-0.60;36.00;;;;;;4862060;29;20393;-96
2021/03/01 00:03:11;;;;;;;14.13;6.25;;;-0.60;36.10;;;;;;4877325;29;20104;-95
2021/03/01 00:05:38;;;;;;;16.08;6.45;;;-0.70;36.00;;;;;;4879910;29;20025;-95
2021/03/01 00:08:08;;;;;;;15.70;6.28;;;-0.70;36.00;;;;;;4882510;29;20023;-95
2021/03/01 00:10:35;;;;;;;14.05;6.57;;;-0.70;36.10;;;;;;4868230;29;20532;-96
2021/03/01 00:13:03;;;;;;;14.57;7.03;;;-0.70;36.10;;;;;;4881001;29;20487;-95
2021/03/01 00:15:30;;;;;;;13.98;6.88;;;-0.80;36.10;;;;;;4877829;29;20039;-94
2021/03/01 00:17:58;;;;;;;15.55;8.20;;;-0.70;36.20;;;;;;4877138;29;20552;-96
2021/03/01 00:20:26;;;;;;;17.42;7.65;;;-0.80;36.20;;;;;;4876827;29;20449;-95
2021/03/01 00:22:52;;;;;;;14.75;6.30;;;-0.80;36.30;;;;;;4865792;29;20087;-93
2021/03/01 00:25:22;;;;;;;16.88;7.03;;;-0.80;36.30;;;;;;4884313;29;20049;-94
2021/03/01 00:27:49;;;;;;;13.15;6.38;;;-0.90;36.30;;;;;;4876835;29;20025;-91
2021/03/01 00:30:17;;;;;;;14.68;6.70;;;-0.90;36.30;;;;;;4865395;29;20041;-91
2021/03/01 00:32:44;;;;;;;16.08;6.32;;;-0.90;36.30;;;;;;4865685;29;20462;-91
2021/03/01 00:35:12;;;;;;;14.27;6.53;;;-0.90;36.40;;;;;;4879986;29;20035;-90
2021/03/01 00:37:39;;;;;;;14.68;6.47;;;-0.90;36.40;;;;;;4877250;29;20489;-91
2021/03/01 00:40:08;;;;;;;18.02;6.93;;;-1.00;36.40;;;;;;4878997;29;20571;-91
2021/03/01 00:42:34;;;;;;;13.63;6.32;;;-1.00;36.40;;;;;;4878996;29;20096;-91
2021/03/01 00:45:03;;;;;;;13.45;6.97;;;-1.00;36.40;;;;;;4874326;29;20474;-91
2021/03/01 00:47:29;;;;;;;15.63;7.35;;;-1.00;36.50;;;;;;4862704;29;20045;-91
2021/03/01 00:49:57;;;;;;;18.10;6.70;;;-1.00;36.50;;;;;;4861296;29;20505;-90
2021/03/01 00:52:25;;;;;;;18.10;6.85;;;-1.10;36.50;;;;;;4858279;29;20029;-91
2021/03/01 00:54:52;;;;;;;14.20;6.90;;;-1.10;36.50;;;;;;4877415;29;20560;-91
2021/03/01 00:57:19;;;;;;;16.50;6.82;;;-1.10;36.60;;;;;;4873390;29;20470;-95
2021/03/01 00:59:49;;;;;;;17.00;6.93;;;-1.10;36.60;;;;;;4875128;29;20033;-96
2021/03/01 01:02:28;;;;;;;16.58;7.88;;;-1.10;36.60;;;;;;4872767;29;20040;-96
2021/03/01 01:05:07;;;;;;;18.95;7.50;;;-1.10;36.70;;;;;;4902090;29;20021;-96
2021/03/01 01:07:34;;;;;;;18.50;7.30;;;-1.20;36.70;;;;;;4877184;29;20035;-91
2021/03/01 01:10:01;;;;;;;14.07;6.50;;;-1.20;36.60;;;;;;4857376;29;20073;-90
2021/03/01 01:12:28;;;;;;;15.82;6.05;;;-1.20;36.60;;;;;;4866028;29;20497;-90
2021/03/01 01:14:54;;;;;;;15.95;6.85;;;-1.20;36.70;;;;;;4848565;29;20033;-90
2021/03/01 01:17:21;;;;;;;13.48;6.28;;;-1.20;36.70;;;;;;4876073;29;20168;-90
2021/03/01 01:19:47;;;;;;;14.48;6.40;;;-1.30;36.80;;;;;;4873291;29;20025;-91
2021/03/01 01:22:14;;;;;;;16.15;6.65;;;-1.30;37.40;;;;;;4856415;29;20527;-91
2021/03/01 01:24:40;;;;;;;15.10;7.07;;;-1.30;36.80;;;;;;4876330;29;20031;-91
2021/03/01 01:27:08;;;;;;;17.20;6.65;;;-1.30;36.90;;;;;;4867878;29;20123;-90
2021/03/01 01:29:34;;;;;;;15.65;6.68;;;-1.30;36.80;;;;;;4874648;29;20112;-89
2021/03/01 01:32:01;;;;;;;13.57;5.90;;;-1.30;36.90;;;;;;4895579;29;20346;-89
2021/03/01 01:34:28;;;;;;;15.52;7.18;;;-1.40;36.80;;;;;;4864431;29;20477;-89
2021/03/01 01:36:56;;;;;;;15.32;7.03;;;-1.40;36.80;;;;;;4894196;29;20492;-88
2021/03/01 01:39:23;;;;;;;17.17;7.60;;;-1.40;36.90;;;;;;4874561;29;20478;-89
2021/03/01 01:41:51;;;;;;;16.25;7.07;;;-1.40;36.90;;;;;;4873130;29;20485;-88
2021/03/01 01:44:18;;;;;;;17.85;7.68;;;-1.40;37.00;;;;;;4872963;29;20478;-89
2021/03/01 01:46:45;;;;;;;17.08;6.80;;;-1.40;37.00;;;;;;4892597;29;20508;-89
2021/03/01 01:49:13;;;;;;;12.52;6.00;;;-1.40;37.00;;;;;;4879979;29;20501;-93
2021/03/01 01:51:43;;;;;;;18.80;7.00;;;-1.40;37.00;;;;;;4878232;29;20541;-86
2021/03/01 01:54:11;;;;;;;15.90;7.07;;;-1.50;37.00;;;;;;4881531;29;20024;-96
2021/03/01 01:56:37;;;;;;;14.02;6.28;;;-1.50;37.10;;;;;;4865270;29;20036;-94
2021/03/01 01:59:05;;;;;;;16.48;6.85;;;-1.50;37.10;;;;;;4881509;29;20542;-94
2021/03/01 02:01:32;;;;;;;14.15;5.90;;;-1.50;37.20;;;;;;4860475;29;20041;-94
2021/03/01 02:04:19;;;;;;;15.77;6.68;;;-1.50;37.20;;;;;;4880386;29;20036;-94
2021/03/01 02:06:47;;;;;;;15.93;6.38;;;-1.50;37.30;;;;;;4881651;29;20505;-93
2021/03/01 02:09:29;;;;;;;14.82;6.28;;;-1.50;37.20;;;;;;4875364;29;20048;-93
2021/03/01 02:12:07;;;;;;;12.00;6.25;;;-1.60;37.20;;;;;;4876381;29;20525;-92
2021/03/01 02:14:58;;;;;;;13.15;6.88;;;-1.60;37.30;;;;;;4877088;29;20099;-91
2021/03/01 02:17:26;;;;;;;16.67;7.15;;;-1.60;37.40;;;;;;4880314;29;20043;-92
2021/03/01 02:19:53;;;;;;;13.35;5.78;;;-1.60;37.30;;;;;;4881891;29;20025;-92
2021/03/01 02:22:21;;;;;;;16.02;6.82;;;-1.60;37.30;;;;;;4879698;29;20044;-91
2021/03/01 02:24:54;;;;;;;16.73;6.85;;;-1.60;37.30;;;;;;4879041;29;20056;-91
2021/03/01 02:27:30;;;;;;;13.95;6.15;;;-1.70;37.30;;;;;;4879585;29;20025;-91
2021/03/01 02:30:15;;;;;;;14.98;6.55;;;-1.70;37.40;;;;;;4871389;29;20477;-92
2021/03/01 02:32:44;;;;;;;12.95;5.57;;;-1.70;37.30;;;;;;4879231;29;20029;-92
2021/03/01 02:35:17;;;;;;;15.95;7.38;;;-1.80;37.20;;;;;;4876256;29;20029;-92
2021/03/01 02:37:46;;;;;;;14.90;5.90;;;-1.80;37.40;;;;;;4879915;29;20085;-91
2021/03/01 02:40:13;;;;;;;13.13;6.15;;;-1.80;37.40;;;;;;4880071;29;20029;-93
2021/03/01 02:42:42;;;;;;;15.13;6.03;;;-1.80;37.40;;;;;;4893590;29;20033;-93
2021/03/01 02:45:09;;;;;;;15.77;6.30;;;-1.80;37.50;;;;;;4870878;29;20029;-91
2021/03/01 02:47:36;;;;;;;13.65;6.22;;;-1.80;37.50;;;;;;4877361;29;20116;-93
2021/03/01 02:50:03;;;;;;;20.05;7.32;;;-1.80;37.50;;;;;;4875675;29;20028;-94
2021/03/01 02:52:30;;;;;;;14.88;7.20;;;-1.80;37.60;;;;;;4879023;29;20086;-93
2021/03/01 02:54:59;;;;;;;16.38;6.20;;;-1.90;37.80;;;;;;4866797;29;20116;-93
2021/03/01 02:57:25;;;;;;;13.68;6.05;;;-1.90;37.60;;;;;;4868984;29;20111;-92
2021/03/01 02:59:56;;;;;;;14.95;6.35;;;-1.90;37.50;;;;;;4878362;29;20024;-92
2021/03/01 03:02:24;;;;;;;15.52;7.05;;;-1.90;37.60;;;;;;4877759;29;20040;-92
2021/03/01 03:04:54;;;;;;;15.27;6.35;;;-1.80;37.70;;;;;;4874929;29;20434;-93
2021/03/01 03:07:24;;;;;;;13.55;5.80;;;-1.90;37.70;;;;;;4878232;29;20477;-92
2021/03/01 03:09:52;;;;;;;13.38;5.85;;;-1.90;37.70;;;;;;4867070;29;20473;-96
2021/03/01 03:12:20;;;;;;;16.15;6.57;;;-1.90;37.70;;;;;;4867327;29;20028;-96
2021/03/01 03:14:50;;;;;;;14.45;6.90;;;-2.00;37.70;;;;;;4866656;29;20433;-96
2021/03/01 03:21:18;;;;;;;12.98;5.88;;;-2.00;37.80;;;;;;4923148;29;20047;-96
2021/03/01 03:23:47;;;;;;;15.50;6.88;;;-2.10;37.80;;;;;;4875481;29;20029;-96
2021/03/01 03:26:28;;;;;;;14.32;5.45;;;-2.10;37.80;;;;;;4893410;29;20457;-96
2021/03/01 03:28:56;;;;;;;14.48;5.60;;;-2.10;37.90;;;;;;4878511;29;20025;-96
2021/03/01 03:31:25;;;;;;;13.63;5.53;;;-2.10;37.80;;;;;;4873723;29;20045;-96
2021/03/01 03:33:51;;;;;;;12.10;5.60;;;-2.10;38.50;;;;;;4871258;29;20029;-96
2021/03/01 03:36:23;;;;;;;14.43;5.88;;;-2.10;37.90;;;;;;4879294;29;20489;-95
2021/03/01 03:39:25;;;;;;;13.70;5.50;;;-2.20;37.90;;;;;;4878827;29;20165;-96
2021/03/01 03:41:53;;;;;;;11.18;4.75;;;-2.20;38.00;;;;;;4787956;29;20039;-94
2021/03/01 03:44:20;;;;;;;12.60;5.43;;;-2.20;37.90;;;;;;4856777;29;20068;-94
2021/03/01 03:46:47;;;;;;;12.23;5.20;;;-2.20;37.90;;;;;;4854524;29;20029;-96
2021/03/01 03:49:17;;;;;;;12.70;5.50;;;-2.20;38.00;;;;;;4877959;29;20462;-94
2021/03/01 03:51:45;;;;;;;14.50;5.80;;;-2.20;38.00;;;;;;4874952;29;20025;-94
2021/03/01 03:54:17;;;;;;;12.43;5.75;;;-2.20;38.00;;;;;;4862952;29;20021;-94
2021/03/01 03:56:52;;;;;;;12.98;5.38;;;-2.20;38.10;;;;;;4871025;29;20473;-94
2021/03/01 03:59:21;;;;;;;11.13;4.97;;;-2.20;38.20;;;;;;4874551;29;20493;-94
2021/03/01 04:01:54;;;;;;;11.18;5.32;;;-2.20;38.10;;;;;;4869635;29;20486;-94
2021/03/01 04:04:22;;;;;;;11.10;5.45;;;-2.20;38.10;;;;;;4871730;29;20521;-94
2021/03/01 04:06:52;;;;;;;14.82;5.60;;;-2.10;38.70;;;;;;4869070;29;20058;-95
2021/03/01 04:09:21;;;;;;;10.48;4.82;;;-2.30;38.10;;;;;;4866256;29;20112;-94
2021/03/01 04:11:51;;;;;;;11.70;4.53;;;-2.30;38.20;;;;;;4872218;29;20076;-95
2021/03/01 04:14:22;;;;;;;12.65;5.10;;;-2.30;38.20;;;;;;4853596;29;20033;-95
2021/03/01 04:16:52;;;;;;;12.45;5.10;;;-2.40;38.20;;;;;;4872074;29;20033;-94
2021/03/01 04:19:20;;;;;;;10.98;4.50;;;-2.30;38.20;;;;;;4870760;29;20022;-95
2021/03/01 04:21:48;;;;;;;13.27;5.43;;;-2.30;38.20;;;;;;4868021;29;20033;-95
2021/03/01 04:24:17;;;;;;;13.25;5.55;;;-2.30;38.20;;;;;;4869947;29;20021;-95
2021/03/01 04:26:45;;;;;;;11.18;4.53;;;-2.40;38.20;;;;;;4874732;29;20052;-91
2021/03/01 04:29:13;;;;;;;12.52;5.40;;;-2.40;38.20;;;;;;4874230;29;20542;-93
2021/03/01 04:31:40;;;;;;;17.10;5.90;;;-2.40;38.30;;;;;;4890499;29;20049;-93
2021/03/01 04:34:08;;;;;;;14.95;6.05;;;-2.40;38.40;;;;;;4895743;29;20029;-93
2021/03/01 04:36:35;;;;;;;11.23;5.40;;;-2.40;38.30;;;;;;4886099;29;20029;-93
2021/03/01 04:39:03;;;;;;;10.98;4.78;;;-2.40;38.40;;;;;;4883174;29;20086;-95
2021/03/01 04:41:29;;;;;;;15.18;5.32;;;-2.50;38.30;;;;;;4865829;29;20514;-95
2021/03/01 04:43:58;;;;;;;14.55;5.88;;;-2.40;38.40;;;;;;4860307;29;20529;-95
2021/03/01 04:46:28;;;;;;;11.27;5.07;;;-2.50;38.40;;;;;;4881189;29;20033;-95
2021/03/01 04:49:01;;;;;;;10.93;4.72;;;-2.40;39.10;;;;;;4874813;29;20036;-94
2021/03/01 04:51:29;;;;;;;9.95;4.60;;;-2.50;38.40;;;;;;4874186;29;20059;-94
2021/03/01 04:53:58;;;;;;;13.25;4.78;;;-2.40;38.40;;;;;;4884079;29;20469;-96
2021/03/01 04:56:26;;;;;;;11.82;4.70;;;-2.50;38.40;;;;;;4886111;29;20417;-95
2021/03/01 04:58:55;;;;;;;14.02;5.72;;;-2.50;38.50;;;;;;4884685;29;20056;-96
2021/03/01 05:01:23;;;;;;;11.43;5.28;;;-2.50;38.50;;;;;;4892300;29;20095;-95
2021/03/01 05:03:51;;;;;;;15.10;6.47;;;-2.50;38.50;;;;;;4864189;29;20033;-94
2021/03/01 05:06:20;;;;;;;15.27;5.97;;;-2.50;38.60;;;;;;4867028;29;20534;-94
2021/03/01 05:08:48;;;;;;;13.27;5.53;;;-2.50;38.60;;;;;;4875498;29;20028;-95
2021/03/01 05:11:36;;;;;;;17.25;5.85;;;-2.50;38.60;;;;;;4858071;29;20028;-95
2021/03/01 05:14:06;;;;;;;14.00;5.43;;;-2.50;38.70;;;;;;4881415;29;20075;-95
2021/03/01 05:16:34;;;;;;;12.40;5.10;;;-2.60;38.50;;;;;;4867798;29;20021;-94
2021/03/01 05:19:01;;;;;;;12.63;5.55;;;-2.60;38.60;;;;;;4874491;29;20474;-93
2021/03/01 05:21:29;;;;;;;11.15;4.75;;;-2.60;38.60;;;;;;4879349;29;20128;-92
2021/03/01 05:23:58;;;;;;;12.88;5.70;;;-2.60;38.60;;;;;;4879825;29;20021;-92
2021/03/01 05:26:25;;;;;;;11.73;5.47;;;-2.70;38.60;;;;;;4879932;29;20093;-92
2021/03/01 05:28:52;;;;;;;14.07;5.28;;;-2.70;38.80;;;;;;4884240;29;20434;-93
2021/03/01 05:31:23;;;;;;;13.98;5.95;;;-2.60;38.80;;;;;;4881392;29;20385;-94
2021/03/01 05:33:50;;;;;;;11.38;5.05;;;-2.60;38.80;;;;;;4879887;29;20372;-93
2021/03/01 05:36:20;;;;;;;14.10;5.28;;;-2.60;38.80;;;;;;4880600;29;20529;-94
2021/03/01 05:38:46;;;;;;;12.40;5.35;;;-2.60;38.90;;;;;;4879408;29;20039;-94
2021/03/01 05:41:17;;;;;;;14.02;5.80;;;-2.60;39.50;;;;;;4904693;29;20478;-94
2021/03/01 05:43:48;;;;;;;11.35;5.35;;;-2.60;38.90;;;;;;4866235;29;20453;-95
2021/03/01 05:46:18;;;;;;;11.85;5.57;;;-2.60;38.90;;;;;;4885592;29;20081;-92
2021/03/01 05:48:47;;;;;;;14.13;6.03;;;-2.60;38.90;;;;;;4892590;29;20036;-94
2021/03/01 05:51:16;;;;;;;12.85;5.50;;;-2.70;38.90;;;;;;4876403;29;20561;-95
2021/03/01 05:53:43;;;;;;;17.75;6.63;;;-2.60;39.00;;;;;;4878644;29;20020;-93
2021/03/01 05:56:14;;;;;;;14.70;5.95;;;-2.70;38.90;;;;;;4874017;29;20363;-95
2021/03/01 05:58:44;;;;;;;12.73;5.30;;;-2.70;38.90;;;;;;4881269;29;20026;-95
2021/03/01 06:01:13;;;;;;;14.30;6.47;;;-2.70;39.00;;;;;;4881837;29;21253;-96
2021/03/01 06:03:41;;;;;;;17.13;6.82;;;-2.60;39.00;;;;;;4867204;29;20029;-96
2021/03/01 06:06:12;;;;;;;14.25;5.72;;;-2.70;39.10;;;;;;4878510;29;20033;-87
2021/03/01 06:08:41;;;;;;;13.00;6.15;;;-2.70;39.10;;;;;;4878284;29;20044;-86
2021/03/01 06:11:09;;;;;;;15.02;6.05;;;-2.70;39.20;;;;;;4876573;29;20048;-88
2021/03/01 06:13:37;;;;;;;14.07;6.18;;;-2.70;39.20;;;;;;4879075;29;20029;-89
2021/03/01 06:16:06;;;;;;;16.42;6.05;;;-2.60;39.50;;;;;;4865064;29;20481;-88
2021/03/01 06:18:33;;;;;;;14.15;6.05;;;-2.50;39.70;;;;;;4880940;29;20104;-91
2021/03/01 06:21:11;;;;;;;16.23;7.05;;;-2.40;39.80;;;;;;4849260;29;20033;-89
2021/03/01 06:23:41;;;;;;;17.08;6.97;;;-2.40;39.80;;;;;;4888813;29;20060;-90
2021/03/01 06:26:22;;;;;;;18.17;7.10;;;-2.30;39.80;;;;;;4888980;29;20068;-89
2021/03/01 06:28:49;;;;;;;13.82;6.07;;;-2.20;39.90;;;;;;4879333;29;20028;-94
2021/03/01 06:31:48;;;;;;;17.33;6.68;;;-2.10;40.50;;;;;;4877883;29;20025;-86
2021/03/01 06:34:19;;;;;;;13.10;6.20;;;-2.10;39.90;;;;;;4837327;29;20120;-86
2021/03/01 06:37:18;;;;;;;16.75;6.45;;;-2.10;39.80;;;;;;4867808;29;20477;-85
2021/03/01 06:39:52;;;;;;;17.73;6.40;;;-2.00;39.90;;;;;;4871008;29;20025;-85
2021/03/01 06:42:22;;;;;;;15.90;6.68;;;-2.00;39.90;;;;;;4860424;29;20041;-85
2021/03/01 06:44:49;;;;;;;14.05;6.82;;;-2.00;39.90;;;;;;4875692;29;20045;-85
2021/03/01 06:47:17;;;;;;;16.00;6.50;;;-2.00;39.90;;;;;;4848618;29;20025;-87
2021/03/01 06:49:45;;;;;;;12.80;6.03;;;-2.00;40.00;;;;;;4872538;29;20053;-87
2021/03/01 06:52:39;;;;;;;13.70;6.05;;;-1.90;40.60;;;;;;4877647;29;20525;-89
2021/03/01 06:55:13;;;;;;;15.05;6.97;;;-1.90;40.10;;;;;;4876836;29;20021;-86
2021/03/01 06:57:40;;;;;;;15.48;6.78;;;-1.80;40.10;;;;;;4848859;29;20513;-84
2021/03/01 07:00:09;;;;;;;18.73;7.45;;;-1.80;40.10;;;;;;4832946;29;20562;-83
2021/03/01 07:02:43;;;;;;;19.10;7.75;;;-1.80;40.20;;;;;;4879379;29;20044;-84
2021/03/01 07:05:11;;;;;;;19.48;8.00;;;-1.70;40.30;;;;;;4869154;29;20431;-84
2021/03/01 07:07:38;;;;;;;18.50;7.97;;;-1.70;40.20;;;;;;4846068;29;20025;-84
2021/03/01 07:10:07;;;;;;;16.48;6.32;;;-1.60;40.30;;;;;;4848788;29;20033;-85
2021/03/01 07:12:44;;;;;;;18.08;8.30;;;-1.60;40.40;;;;;;4853995;29;20032;-84
2021/03/01 07:15:13;;;;;;;15.38;6.75;;;-1.50;40.50;;;;;;4854207;29;20528;-82
2021/03/01 07:17:44;;;;;;;15.35;6.45;;;-1.50;40.50;;;;;;4877718;29;20029;-83
2021/03/01 07:20:14;;;;;;;13.60;6.60;;;-1.40;40.60;;;;;;4862947;29;20022;-83
2021/03/01 07:22:44;;;;;;;17.67;7.55;;;-1.40;40.60;;;;;;4866988;29;20123;-84
2021/03/01 07:25:12;;;;;;;15.63;7.05;;;-1.30;40.70;;;;;;4854074;29;20116;-84
2021/03/01 07:27:43;;;;;;;25.20;8.18;;;-1.20;40.70;;;;;;4847892;29;20466;-84
2021/03/01 07:30:11;;;;;;;17.15;8.32;;;-1.20;40.80;;;;;;4871418;29;20040;-84
2021/03/01 07:32:40;;;;;;;15.10;6.63;;;-1.10;40.90;;;;;;4868008;29;20538;-84
2021/03/01 07:35:09;;;;;;;18.13;8.32;;;-1.00;41.00;;;;;;4872505;29;20077;-83
2021/03/01 07:37:37;;;;;;;16.88;7.60;;;-0.90;41.10;;;;;;4874408;29;20367;-84
2021/03/01 07:40:05;;;;;;;17.35;7.03;;;-0.80;41.10;;;;;;4860808;29;20037;-85
2021/03/01 07:42:35;;;;;;;18.77;7.90;;;-0.70;41.20;;;;;;4859161;29;20528;-83
2021/03/01 07:45:02;;;;;;;20.58;8.70;;;-0.60;41.30;;;;;;4886612;29;20481;-84
2021/03/01 07:47:30;;;;;;;15.82;7.75;;;-0.50;41.40;;;;;;4873489;29;20036;-83
2021/03/01 07:49:56;;;;;;;18.17;7.85;;;-0.40;41.50;;;;;;4870122;29;20053;-83
2021/03/01 07:52:26;;;;;;;15.85;7.43;;;-0.30;41.50;;;;;;4872232;29;20199;-83
2021/03/01 07:54:56;;;;;;;15.73;7.43;;;-0.20;41.60;;;;;;4880290;29;20031;-84
2021/03/01 07:57:26;;;;;;;19.83;7.60;;;-0.10;41.60;;;;;;4894330;29;20481;-85
2021/03/01 07:59:53;;;;;;;18.98;7.53;;;0.00;41.70;;;;;;4877490;29;20500;-84
2021/03/01 08:02:24;;;;;;;20.20;8.20;;;0.10;41.90;;;;;;4878931;29;20044;-84
2021/03/01 08:04:55;;;;;;;20.45;8.38;;;0.20;41.80;;;;;;4892897;29;20473;-83
2021/03/01 08:07:37;;;;;;;20.42;9.13;;;0.30;41.90;;;;;;4886107;29;20540;-83
2021/03/01 08:10:06;;;;;;;20.80;8.10;;;0.40;42.10;;;;;;4885048;29;20063;-84
2021/03/01 08:12:38;;;;;;;19.50;8.52;;;0.50;41.90;;;;;;4870358;29;20147;-84
2021/03/01 08:15:08;;;;;;;20.65;7.85;;;0.60;42.00;;;;;;4884773;29;20032;-83
2021/03/01 08:17:39;;;;;;;16.65;7.70;;;0.70;42.10;;;;;;4885216;29;20486;-83
2021/03/01 08:20:15;;;;;;;16.95;7.60;;;0.80;42.30;;;;;;4871277;29;20036;-84
2021/03/01 08:23:07;;;;;;;18.98;7.18;;;0.90;42.40;;;;;;4889838;29;20045;-83
2021/03/01 08:25:52;;;;;;;15.10;6.72;;;1.00;42.60;;;;;;4887280;29;20500;-83
2021/03/01 08:28:26;;;;;;;17.23;6.90;;;1.20;42.60;;;;;;4882631;29;20540;-84
2021/03/01 08:30:53;;;;;;;16.67;6.53;;;1.30;42.60;;;;;;4886548;29;20076;-84
2021/03/01 08:33:22;;;;;;;17.02;7.10;;;1.40;42.60;;;;;;4883555;29;20112;-84
2021/03/01 08:35:51;;;;;;;16.48;7.20;;;1.50;42.70;;;;;;4896183;29;20552;-84
2021/03/01 08:38:38;;;;;;;18.70;7.43;;;1.60;42.80;;;;;;4878299;29;20035;-84
2021/03/01 08:41:06;;;;;;;16.42;7.22;;;1.70;42.80;;;;;;4875933;29;20634;-84
2021/03/01 08:43:36;;;;;;;15.07;7.00;;;1.80;42.70;;;;;;4882315;29;20037;-87
2021/03/01 08:46:08;;;;;;;17.02;7.47;;;2.00;43.20;;;;;;4893985;29;20040;-84
2021/03/01 08:48:42;;;;;;;14.55;5.97;;;2.20;43.20;;;;;;4892118;29;20481;-84
2021/03/01 08:51:12;;;;;;;17.52;7.22;;;2.20;43.10;;;;;;4870047;29;20040;-85
2021/03/01 08:53:39;;;;;;;15.20;6.82;;;2.40;43.10;;;;;;4860823;29;20036;-85
2021/03/01 08:56:06;;;;;;;21.08;7.10;;;2.50;43.30;;;;;;4864237;29;20124;-84
2021/03/01 08:58:34;;;;;;;15.20;7.30;;;2.60;43.20;;;;;;4889907;29;20500;-85
2021/03/01 09:01:06;;;;;;;16.25;7.00;;;2.70;43.20;;;;;;4871520;29;20037;-85
2021/03/01 09:03:34;;;;;;;14.13;5.30;;;2.80;43.40;;;;;;4879867;29;20021;-85
2021/03/01 09:06:12;;;;;;;20.38;7.43;;;2.90;43.80;;;;;;4871811;29;20487;-85
2021/03/01 09:08:38;;;;;;;18.98;7.18;;;3.10;44.10;;;;;;4879362;29;20034;-85
2021/03/01 09:11:07;;;;;;;17.40;7.47;;;3.30;43.90;;;;;;4872997;29;20029;-85
2021/03/01 09:13:37;;;;;;;15.88;6.63;;;3.50;44.10;;;;;;4866708;29;20021;-85
2021/03/01 09:16:12;;;;;;;17.35;6.28;;;3.60;43.90;;;;;;4882335;29;20036;-84
2021/03/01 09:18:41;;;;;;;16.10;7.18;;;3.70;44.30;;;;;;4878522;29;20370;-84
2021/03/01 09:21:12;;;;;;;16.67;6.07;;;3.90;44.20;;;;;;4887902;29;20068;-85
2021/03/01 09:23:55;;;;;;;17.02;7.05;;;4.00;44.30;;;;;;4897537;29;20044;-85
2021/03/01 09:26:25;;;;;;;15.90;5.75;;;4.20;44.30;;;;;;4890564;29;20505;-84
2021/03/01 09:28:54;;;;;;;14.82;6.28;;;4.30;44.40;;;;;;4882190;29;20028;-84
2021/03/01 09:31:23;;;;;;;13.18;5.72;;;4.50;44.50;;;;;;4852106;29;20509;-84
2021/03/01 09:33:51;;;;;;;17.88;6.78;;;4.70;44.70;;;;;;4872235;29;20521;-84
2021/03/01 09:36:18;;;;;;;14.57;6.53;;;4.80;44.60;;;;;;4871023;29;20442;-84
2021/03/01 09:38:54;;;;;;;18.77;6.68;;;5.00;44.70;;;;;;4890130;29;20462;-84
2021/03/01 09:41:20;;;;;;;12.70;5.90;;;5.10;44.80;;;;;;4859203;29;20043;-85
2021/03/01 09:43:51;;;;;;;14.07;6.53;;;5.30;45.00;;;;;;4860632;29;20523;-84
2021/03/01 09:46:18;;;;;;;16.38;6.28;;;5.50;45.20;;;;;;4864858;29;20045;-84
2021/03/01 09:48:54;;;;;;;14.82;5.68;;;5.70;45.30;;;;;;4865927;29;20021;-84
2021/03/01 09:51:22;;;;;;;12.85;5.47;;;5.90;45.40;;;;;;4874300;29;20449;-85
2021/03/01 09:53:49;;;;;;;12.70;6.10;;;6.20;45.60;;;;;;4885161;29;20021;-87
2021/03/01 09:56:18;;;;;;;13.48;6.05;;;6.30;45.40;;;;;;4862885;29;20033;-86
2021/03/01 09:58:46;;;;;;;13.15;5.47;;;6.50;46.00;;;;;;4864060;29;20044;-87
2021/03/01 10:01:18;;;;;;;12.32;5.05;;;6.70;45.50;;;;;;4873057;29;20542;-85
2021/03/01 10:03:47;;;;;;;12.23;5.53;;;6.90;45.70;;;;;;4856077;29;20087;-85
2021/03/01 10:06:15;;;;;;;14.50;6.50;;;7.10;45.70;;;;;;4862742;29;20022;-86
2021/03/01 10:08:43;;;;;;;12.50;5.95;;;7.30;45.90;;;;;;4871240;29;20025;-86
2021/03/01 10:11:25;;;;;;;13.43;5.88;;;7.50;46.00;;;;;;4865311;29;20055;-86
2021/03/01 10:14:04;;;;;;;12.23;5.10;;;7.80;46.20;;;;;;4876384;29;20069;-86
2021/03/01 10:16:31;;;;;;;12.48;5.80;;;8.00;46.40;;;;;;4867934;29;20031;-84
2021/03/01 10:19:14;;;;;;;14.73;5.88;;;8.30;46.50;;;;;;4850391;29;20033;-85
2021/03/01 10:21:41;;;;;;;14.88;6.80;;;8.60;46.60;;;;;;4861895;29;20044;-86
2021/03/01 10:24:10;;;;;;;14.90;6.15;;;8.80;46.90;;;;;;4868881;29;20033;-85
2021/03/01 10:27:00;;;;;;;13.60;5.65;;;9.10;47.10;;;;;;4868081;29;20028;-86
2021/03/01 10:29:35;;;;;;;13.70;6.22;;;9.60;47.70;;;;;;4869863;29;20490;-84
2021/03/01 10:32:01;;;;;;;;;;;10.00;48.20;;;;;;4875710;29;20052;-85
2021/03/01 10:34:36;;;;;;;13.27;5.22;;;10.40;48.70;;;;;;4859512;29;19959;-86
2021/03/01 10:37:08;;;;;;;14.02;6.15;;;11.00;49.40;;;;;;4871186;29;20024;-86
2021/03/01 10:39:42;;;;;;;12.30;5.63;;;11.50;49.90;;;;;;4865069;29;20061;-88
2021/03/01 10:42:20;;;;;;;11.02;4.93;;;12.10;50.80;;;;;;4869155;29;20385;-87
2021/03/01 10:45:00;;;;;;;12.32;5.72;;;12.70;51.30;;;;;;4871204;29;20490;-86
2021/03/01 10:47:29;;;;;;;11.18;5.78;;;13.20;51.50;;;;;;4875002;29;20558;-86
2021/03/01 10:49:57;;;;;;;11.02;4.85;;;13.70;51.50;;;;;;4875310;29;20060;-87
2021/03/01 10:52:26;;;;;;;13.27;6.03;;;14.30;52.00;;;;;;4861535;29;20075;-87
2021/03/01 10:54:55;;;;;;;13.13;5.35;;;14.80;52.10;;;;;;4874777;29;20029;-86
2021/03/01 10:57:24;;;;;;;12.35;5.53;;;15.10;51.80;;;;;;4862242;29;20534;-87
2021/03/01 10:59:52;;;;;;;10.73;5.43;;;15.60;52.30;;;;;;4874591;29;20025;-86
2021/03/01 11:02:18;;;;;;;11.82;5.60;;;16.10;52.60;;;;;;4875854;29;20092;-88
2021/03/01 11:04:46;;;;;;;12.80;5.60;;;16.60;52.10;;;;;;4858340;29;20036;-85
2021/03/01 11:07:13;;;;;;;10.75;5.63;;;16.90;52.00;;;;;;4867900;29;20469;-86
2021/03/01 11:09:40;;;;;;;9.52;4.80;;;17.30;52.10;;;;;;4863806;29;20033;-87
2021/03/01 11:12:06;;;;;;;10.70;5.25;;;17.60;51.60;;;;;;4862813;29;20021;-86
2021/03/01 11:14:33;;;;;;;11.60;5.70;;;17.90;51.70;;;;;;4873952;29;20048;-86
2021/03/01 11:17:01;;;;;;;9.88;5.40;;;18.20;51.80;;;;;;4850802;29;20044;-87
2021/03/01 11:19:29;;;;;;;10.07;5.18;;;18.70;52.00;;;;;;4870274;29;20045;-88
2021/03/01 11:21:55;;;;;;;10.02;4.85;;;18.90;51.00;;;;;;4875909;29;20093;-88
2021/03/01 11:24:22;;;;;;;13.00;5.47;;;19.10;51.20;;;;;;4857575;29;20120;-87
2021/03/01 11:26:53;;;;;;;11.20;5.40;;;19.30;51.50;;;;;;4871928;29;20072;-89
2021/03/01 11:29:21;;;;;;;10.48;4.93;;;19.60;51.40;;;;;;4866863;29;20508;-88
2021/03/01 11:31:51;;;;;;;10.60;5.65;;;19.80;52.00;;;;;;4871378;29;20038;-88
2021/03/01 11:34:18;;;;;;;12.65;5.93;;;20.00;51.80;;;;;;4865527;29;20056;-86
2021/03/01 11:36:45;;;;;;;9.88;5.10;;;20.50;51.80;;;;;;4864174;29;20462;-87
2021/03/01 11:39:15;;;;;;;9.57;4.78;;;20.60;50.90;;;;;;4868532;29;20430;-86
2021/03/01 11:41:42;;;;;;;9.80;5.20;;;20.70;51.20;;;;;;4867698;29;20382;-88
2021/03/01 11:44:09;;;;;;;12.02;5.07;;;20.80;50.90;;;;;;4883640;29;20596;-88
2021/03/01 11:46:37;;;;;;;10.55;5.05;;;21.00;51.00;;;;;;4880334;29;20176;-88
2021/03/01 11:49:03;;;;;;;10.10;5.05;;;21.30;50.40;;;;;;4863365;29;20493;-89
2021/03/01 11:51:30;;;;;;;12.70;7.78;;;21.80;51.70;;;;;;4864300;29;20040;-90
2021/03/01 11:53:56;;;;;;;10.52;5.50;;;22.10;51.10;;;;;;4862837;29;20147;-88
2021/03/01 11:56:23;;;;;;;10.60;5.30;;;22.30;50.70;;;;;;4878850;29;20033;-87
2021/03/01 11:58:49;;;;;;;9.18;4.43;;;22.60;50.70;;;;;;4868926;29;20040;-86
2021/03/01 12:01:16;;;;;;;8.98;4.18;;;22.70;49.80;;;;;;4851954;29;20041;-86
2021/03/01 12:03:42;;;;;;;10.27;4.68;;;23.00;49.90;;;;;;4857721;29;20032;-86
2021/03/01 12:06:09;;;;;;;9.70;4.97;;;23.10;49.60;;;;;;4870645;29;20477;-87
2021/03/01 12:08:37;;;;;;;9.70;4.82;;;23.30;49.10;;;;;;4862045;29;20508;-87
2021/03/01 12:11:05;;;;;;;8.55;4.32;;;23.40;48.50;;;;;;4883841;29;20025;-87
2021/03/01 12:13:33;;;;;;;8.95;3.88;;;23.70;48.10;;;;;;4864837;29;20044;-87
2021/03/01 12:16:00;;;;;;;8.32;4.07;;;23.90;48.10;;;;;;4869979;29;20029;-88
2021/03/01 12:18:27;;;;;;;8.75;4.18;;;24.10;47.80;;;;;;4858896;29;20122;-87
2021/03/01 12:20:54;;;;;;;9.13;4.25;;;24.20;47.50;;;;;;4886431;29;20473;-87
2021/03/01 12:23:21;;;;;;;9.10;4.57;;;24.30;47.30;;;;;;4856395;29;20048;-88
2021/03/01 12:25:48;;;;;;;10.10;4.45;;;24.50;47.70;;;;;;4876538;29;20120;-87
2021/03/01 12:28:15;;;;;;;8.85;3.80;;;24.70;47.40;;;;;;4889117;29;20489;-87
2021/03/01 12:30:43;;;;;;;9.85;4.38;;;25.00;46.80;;;;;;4876343;29;20541;-91
2021/03/01 12:33:10;;;;;;;8.93;4.38;;;25.10;46.40;;;;;;4882336;29;20119;-88
2021/03/01 12:35:37;;;;;;;9.15;4.10;;;25.30;46.70;;;;;;4889153;29;20490;-87
2021/03/01 12:38:05;;;;;;;8.88;4.25;;;25.60;47.10;;;;;;4855059;29;20505;-86
2021/03/01 12:40:33;;;;;;;8.13;3.90;;;25.70;45.10;;;;;;4869305;29;20510;-89
2021/03/01 12:43:00;;;;;;;8.43;3.58;;;25.70;45.50;;;;;;4877908;29;20026;-88
2021/03/01 12:45:27;;;;;;;9.68;4.00;;;25.80;45.50;;;;;;4882506;29;20037;-88
2021/03/01 12:47:55;;;;;;;8.80;4.07;;;25.80;45.10;;;;;;4885807;29;20516;-89
2021/03/01 12:50:22;;;;;;;7.53;3.50;;;26.10;45.80;;;;;;4887757;29;20477;-88
2021/03/01 12:52:50;;;;;;;6.70;3.20;;;26.20;44.80;;;;;;4873219;29;20489;-90
2021/03/01 12:55:17;;;;;;;7.72;3.58;;;26.20;44.40;;;;;;4885617;29;20029;-87
2021/03/01 12:57:43;;;;;;;7.10;3.10;;;26.30;44.40;;;;;;4884902;29;20029;-87